sensor_id;sensor_type;location;lat;lon;timestamp;P1;durP1;ratioP1;P2;durP2;ratioP2
11344;SDS011;5727;42.600;23.028;2022-08-20T00:00:18;10.00;;;6.07;;
11344;SDS011;5727;42.600;23.028;2022-08-20T00:02:47;9.17;;;5.93;;
11344;SDS011;5727;42.600;23.028;2022-08-20T00:05:19;6.37;;;5.77;;
11344;SDS011;5727;42.600;23.028;2022-08-20T00:07:48;8.43;;;6.00;;
11344;SDS011;5727;42.600;23.028;2022-08-20T00:10:15;5.40;;;4.90;;
11344;SDS011;5727;42.600;23.028;2022-08-20T00:12:42;9.63;;;6.27;;
11344;SDS011;5727;42.600;23.028;2022-08-20T00:15:12;7.37;;;6.27;;
11344;SDS011;5727;42.600;23.028;2022-08-20T00:17:39;7.33;;;5.80;;
11344;SDS011;5727;42.600;23.028;2022-08-20T00:20:08;10.93;;;6.70;;
11344;SDS011;5727;42.600;23.028;2022-08-20T00:22:38;8.23;;;6.27;;
11344;SDS011;5727;42.600;23.028;2022-08-20T00:25:06;8.23;;;6.67;;
11344;SDS011;5727;42.600;23.028;2022-08-20T00:27:34;9.40;;;6.80;;
11344;SDS011;5727;42.600;23.028;2022-08-20T00:30:01;11.63;;;7.47;;
11344;SDS011;5727;42.600;23.028;2022-08-20T00:32:31;10.93;;;7.10;;
11344;SDS011;5727;42.600;23.028;2022-08-20T00:35:07;12.77;;;7.40;;
11344;SDS011;5727;42.600;23.028;2022-08-20T00:37:34;11.43;;;7.10;;
11344;SDS011;5727;42.600;23.028;2022-08-20T00:40:02;15.33;;;7.23;;
11344;SDS011;5727;42.600;23.028;2022-08-20T00:42:29;11.27;;;7.37;;
11344;SDS011;5727;42.600;23.028;2022-08-20T00:44:56;16.57;;;7.40;;
11344;SDS011;5727;42.600;23.028;2022-08-20T00:47:23;13.50;;;7.33;;
11344;SDS011;5727;42.600;23.028;2022-08-20T00:49:53;13.77;;;7.40;;
11344;SDS011;5727;42.600;23.028;2022-08-20T00:52:19;13.20;;;7.30;;
11344;SDS011;5727;42.600;23.028;2022-08-20T00:54:47;11.13;;;7.50;;
11344;SDS011;5727;42.600;23.028;2022-08-20T00:57:18;9.37;;;6.87;;
11344;SDS011;5727;42.600;23.028;2022-08-20T00:59:49;13.00;;;7.10;;
11344;SDS011;5727;42.600;23.028;2022-08-20T01:02:17;9.43;;;6.90;;
11344;SDS011;5727;42.600;23.028;2022-08-20T01:04:48;9.27;;;6.60;;
11344;SDS011;5727;42.600;23.028;2022-08-20T01:07:18;12.73;;;6.87;;
11344;SDS011;5727;42.600;23.028;2022-08-20T01:09:45;8.47;;;7.00;;
11344;SDS011;5727;42.600;23.028;2022-08-20T01:12:13;10.57;;;7.13;;
11344;SDS011;5727;42.600;23.028;2022-08-20T01:14:41;22.10;;;7.63;;
11344;SDS011;5727;42.600;23.028;2022-08-20T01:17:11;8.77;;;6.47;;
11344;SDS011;5727;42.600;23.028;2022-08-20T01:19:42;9.47;;;6.40;;
11344;SDS011;5727;42.600;23.028;2022-08-20T01:22:11;8.80;;;6.97;;
11344;SDS011;5727;42.600;23.028;2022-08-20T01:25:03;8.60;;;6.80;;
11344;SDS011;5727;42.600;23.028;2022-08-20T01:27:36;9.37;;;7.43;;
11344;SDS011;5727;42.600;23.028;2022-08-20T01:30:05;8.27;;;6.47;;
11344;SDS011;5727;42.600;23.028;2022-08-20T01:32:32;10.27;;;6.70;;
11344;SDS011;5727;42.600;23.028;2022-08-20T01:34:59;9.63;;;7.00;;
11344;SDS011;5727;42.600;23.028;2022-08-20T01:37:26;11.23;;;6.73;;
11344;SDS011;5727;42.600;23.028;2022-08-20T01:39:53;11.53;;;6.50;;
11344;SDS011;5727;42.600;23.028;2022-08-20T01:42:21;11.03;;;7.73;;
11344;SDS011;5727;42.600;23.028;2022-08-20T01:44:56;8.73;;;6.90;;
11344;SDS011;5727;42.600;23.028;2022-08-20T01:47:24;8.73;;;6.50;;
11344;SDS011;5727;42.600;23.028;2022-08-20T01:49:53;8.73;;;6.77;;
11344;SDS011;5727;42.600;23.028;2022-08-20T01:52:24;12.80;;;7.10;;
11344;SDS011;5727;42.600;23.028;2022-08-20T01:54:54;10.77;;;6.53;;
11344;SDS011;5727;42.600;23.028;2022-08-20T01:57:22;11.00;;;6.90;;
11344;SDS011;5727;42.600;23.028;2022-08-20T01:59:51;10.83;;;7.03;;
11344;SDS011;5727;42.600;23.028;2022-08-20T02:02:21;8.80;;;7.37;;
11344;SDS011;5727;42.600;23.028;2022-08-20T02:04:49;8.00;;;7.13;;
11344;SDS011;5727;42.600;23.028;2022-08-20T02:07:17;12.03;;;7.17;;
11344;SDS011;5727;42.600;23.028;2022-08-20T02:09:47;10.37;;;7.83;;
11344;SDS011;5727;42.600;23.028;2022-08-20T02:12:15;12.17;;;8.03;;
11344;SDS011;5727;42.600;23.028;2022-08-20T02:14:42;9.40;;;7.50;;
11344;SDS011;5727;42.600;23.028;2022-08-20T02:17:12;8.30;;;6.93;;
11344;SDS011;5727;42.600;23.028;2022-08-20T02:19:42;7.90;;;7.03;;
11344;SDS011;5727;42.600;23.028;2022-08-20T02:22:15;11.53;;;7.50;;
11344;SDS011;5727;42.600;23.028;2022-08-20T02:24:46;9.97;;;7.23;;
11344;SDS011;5727;42.600;23.028;2022-08-20T02:27:13;9.37;;;8.33;;
11344;SDS011;5727;42.600;23.028;2022-08-20T02:29:40;9.80;;;7.60;;
11344;SDS011;5727;42.600;23.028;2022-08-20T02:32:07;10.30;;;7.37;;
11344;SDS011;5727;42.600;23.028;2022-08-20T02:34:34;10.67;;;7.83;;
11344;SDS011;5727;42.600;23.028;2022-08-20T02:37:03;13.07;;;7.63;;
11344;SDS011;5727;42.600;23.028;2022-08-20T02:39:31;9.10;;;7.07;;
11344;SDS011;5727;42.600;23.028;2022-08-20T02:41:58;8.67;;;7.30;;
11344;SDS011;5727;42.600;23.028;2022-08-20T02:44:26;9.23;;;7.67;;
11344;SDS011;5727;42.600;23.028;2022-08-20T02:46:53;9.00;;;7.40;;
11344;SDS011;5727;42.600;23.028;2022-08-20T02:49:20;11.77;;;7.43;;
11344;SDS011;5727;42.600;23.028;2022-08-20T02:51:47;9.87;;;7.43;;
11344;SDS011;5727;42.600;23.028;2022-08-20T02:54:15;9.30;;;7.30;;
11344;SDS011;5727;42.600;23.028;2022-08-20T02:56:42;9.20;;;7.40;;
11344;SDS011;5727;42.600;23.028;2022-08-20T02:59:09;8.90;;;7.30;;
11344;SDS011;5727;42.600;23.028;2022-08-20T03:01:36;12.70;;;7.73;;
11344;SDS011;5727;42.600;23.028;2022-08-20T03:04:03;11.97;;;7.90;;
11344;SDS011;5727;42.600;23.028;2022-08-20T03:06:30;9.73;;;7.50;;
11344;SDS011;5727;42.600;23.028;2022-08-20T03:08:57;9.20;;;7.10;;
11344;SDS011;5727;42.600;23.028;2022-08-20T03:11:26;10.67;;;7.70;;
11344;SDS011;5727;42.600;23.028;2022-08-20T03:13:52;11.17;;;7.97;;
11344;SDS011;5727;42.600;23.028;2022-08-20T03:16:19;14.00;;;8.43;;
11344;SDS011;5727;42.600;23.028;2022-08-20T03:18:46;9.27;;;7.90;;
11344;SDS011;5727;42.600;23.028;2022-08-20T03:21:13;12.83;;;7.63;;
11344;SDS011;5727;42.600;23.028;2022-08-20T03:23:40;10.13;;;7.57;;
11344;SDS011;5727;42.600;23.028;2022-08-20T03:26:08;14.60;;;7.67;;
11344;SDS011;5727;42.600;23.028;2022-08-20T03:28:39;11.40;;;8.07;;
11344;SDS011;5727;42.600;23.028;2022-08-20T03:31:06;9.93;;;7.63;;
11344;SDS011;5727;42.600;23.028;2022-08-20T03:33:34;9.37;;;7.90;;
11344;SDS011;5727;42.600;23.028;2022-08-20T03:36:00;8.40;;;7.60;;
11344;SDS011;5727;42.600;23.028;2022-08-20T03:38:28;12.33;;;8.60;;
11344;SDS011;5727;42.600;23.028;2022-08-20T03:40:55;10.80;;;7.63;;
11344;SDS011;5727;42.600;23.028;2022-08-20T03:43:21;10.60;;;8.27;;
11344;SDS011;5727;42.600;23.028;2022-08-20T03:45:50;12.63;;;8.13;;
11344;SDS011;5727;42.600;23.028;2022-08-20T03:48:17;12.90;;;8.30;;
11344;SDS011;5727;42.600;23.028;2022-08-20T03:50:45;11.90;;;7.70;;
11344;SDS011;5727;42.600;23.028;2022-08-20T03:53:14;10.60;;;8.17;;
11344;SDS011;5727;42.600;23.028;2022-08-20T03:55:41;11.60;;;8.20;;
11344;SDS011;5727;42.600;23.028;2022-08-20T03:58:10;10.70;;;8.13;;
11344;SDS011;5727;42.600;23.028;2022-08-20T04:00:38;14.50;;;7.97;;
11344;SDS011;5727;42.600;23.028;2022-08-20T04:03:09;10.80;;;8.20;;
11344;SDS011;5727;42.600;23.028;2022-08-20T04:05:37;9.23;;;7.87;;
11344;SDS011;5727;42.600;23.028;2022-08-20T04:08:05;11.27;;;8.03;;
11344;SDS011;5727;42.600;23.028;2022-08-20T04:10:34;8.43;;;7.53;;
11344;SDS011;5727;42.600;23.028;2022-08-20T04:13:02;14.47;;;8.23;;
11344;SDS011;5727;42.600;23.028;2022-08-20T04:15:29;14.77;;;9.40;;
11344;SDS011;5727;42.600;23.028;2022-08-20T04:17:56;14.10;;;9.43;;
11344;SDS011;5727;42.600;23.028;2022-08-20T04:20:24;15.70;;;9.37;;
11344;SDS011;5727;42.600;23.028;2022-08-20T04:22:52;10.80;;;8.37;;
11344;SDS011;5727;42.600;23.028;2022-08-20T04:25:19;13.80;;;9.83;;
11344;SDS011;5727;42.600;23.028;2022-08-20T04:27:46;13.67;;;8.83;;
11344;SDS011;5727;42.600;23.028;2022-08-20T04:30:14;14.90;;;9.20;;
11344;SDS011;5727;42.600;23.028;2022-08-20T04:32:42;11.00;;;8.23;;
11344;SDS011;5727;42.600;23.028;2022-08-20T04:35:10;11.87;;;8.57;;
11344;SDS011;5727;42.600;23.028;2022-08-20T04:37:41;12.67;;;8.07;;
11344;SDS011;5727;42.600;23.028;2022-08-20T04:40:10;11.17;;;8.73;;
11344;SDS011;5727;42.600;23.028;2022-08-20T04:42:56;11.10;;;8.77;;
11344;SDS011;5727;42.600;23.028;2022-08-20T04:45:23;12.13;;;8.73;;
11344;SDS011;5727;42.600;23.028;2022-08-20T04:47:50;13.87;;;9.00;;
11344;SDS011;5727;42.600;23.028;2022-08-20T04:50:18;11.40;;;8.77;;
11344;SDS011;5727;42.600;23.028;2022-08-20T04:52:46;9.83;;;8.73;;
11344;SDS011;5727;42.600;23.028;2022-08-20T04:55:14;9.17;;;8.23;;
11344;SDS011;5727;42.600;23.028;2022-08-20T04:57:43;9.90;;;8.70;;
11344;SDS011;5727;42.600;23.028;2022-08-20T05:00:11;13.50;;;8.83;;
11344;SDS011;5727;42.600;23.028;2022-08-20T05:02:41;13.17;;;9.20;;
11344;SDS011;5727;42.600;23.028;2022-08-20T05:05:08;12.47;;;8.97;;
11344;SDS011;5727;42.600;23.028;2022-08-20T05:07:37;10.07;;;8.77;;
11344;SDS011;5727;42.600;23.028;2022-08-20T05:10:07;10.47;;;8.63;;
11344;SDS011;5727;42.600;23.028;2022-08-20T05:12:35;12.60;;;8.73;;
11344;SDS011;5727;42.600;23.028;2022-08-20T05:15:02;13.47;;;8.83;;
11344;SDS011;5727;42.600;23.028;2022-08-20T05:17:29;14.90;;;9.47;;
11344;SDS011;5727;42.600;23.028;2022-08-20T05:19:56;15.17;;;10.30;;
11344;SDS011;5727;42.600;23.028;2022-08-20T05:22:24;17.67;;;9.53;;
11344;SDS011;5727;42.600;23.028;2022-08-20T05:24:52;16.27;;;9.37;;
11344;SDS011;5727;42.600;23.028;2022-08-20T05:27:22;15.57;;;10.30;;
11344;SDS011;5727;42.600;23.028;2022-08-20T05:29:51;18.73;;;9.17;;
11344;SDS011;5727;42.600;23.028;2022-08-20T05:32:20;15.13;;;9.67;;
11344;SDS011;5727;42.600;23.028;2022-08-20T05:34:46;17.83;;;9.00;;
11344;SDS011;5727;42.600;23.028;2022-08-20T05:37:13;17.47;;;9.00;;
11344;SDS011;5727;42.600;23.028;2022-08-20T05:39:41;24.73;;;10.27;;
11344;SDS011;5727;42.600;23.028;2022-08-20T05:42:08;15.77;;;7.67;;
11344;SDS011;5727;42.600;23.028;2022-08-20T05:44:36;15.37;;;8.80;;
11344;SDS011;5727;42.600;23.028;2022-08-20T05:47:03;17.53;;;8.93;;
11344;SDS011;5727;42.600;23.028;2022-08-20T05:49:31;18.17;;;8.73;;
11344;SDS011;5727;42.600;23.028;2022-08-20T05:51:58;15.90;;;8.97;;
11344;SDS011;5727;42.600;23.028;2022-08-20T05:54:25;17.57;;;9.07;;
11344;SDS011;5727;42.600;23.028;2022-08-20T05:56:52;10.97;;;8.10;;
11344;SDS011;5727;42.600;23.028;2022-08-20T05:59:19;11.27;;;8.20;;
11344;SDS011;5727;42.600;23.028;2022-08-20T06:01:48;16.37;;;9.27;;
11344;SDS011;5727;42.600;23.028;2022-08-20T06:04:15;14.80;;;8.50;;
11344;SDS011;5727;42.600;23.028;2022-08-20T06:06:51;18.17;;;8.87;;
11344;SDS011;5727;42.600;23.028;2022-08-20T06:09:19;16.10;;;9.13;;
11344;SDS011;5727;42.600;23.028;2022-08-20T06:11:48;11.83;;;8.03;;
11344;SDS011;5727;42.600;23.028;2022-08-20T06:14:15;11.97;;;8.03;;
11344;SDS011;5727;42.600;23.028;2022-08-20T06:16:43;17.37;;;8.30;;
11344;SDS011;5727;42.600;23.028;2022-08-20T06:19:11;11.43;;;7.53;;
11344;SDS011;5727;42.600;23.028;2022-08-20T06:21:38;18.03;;;8.73;;
11344;SDS011;5727;42.600;23.028;2022-08-20T06:24:05;12.30;;;8.07;;
11344;SDS011;5727;42.600;23.028;2022-08-20T06:26:32;12.50;;;8.77;;
11344;SDS011;5727;42.600;23.028;2022-08-20T06:28:59;11.27;;;8.17;;
11344;SDS011;5727;42.600;23.028;2022-08-20T06:31:27;10.90;;;7.50;;
11344;SDS011;5727;42.600;23.028;2022-08-20T06:33:53;11.33;;;9.23;;
11344;SDS011;5727;42.600;23.028;2022-08-20T06:36:22;8.30;;;7.50;;
11344;SDS011;5727;42.600;23.028;2022-08-20T06:38:50;8.90;;;6.47;;
11344;SDS011;5727;42.600;23.028;2022-08-20T06:41:19;13.67;;;7.63;;
11344;SDS011;5727;42.600;23.028;2022-08-20T06:43:45;6.83;;;6.13;;
11344;SDS011;5727;42.600;23.028;2022-08-20T06:46:12;13.37;;;7.37;;
11344;SDS011;5727;42.600;23.028;2022-08-20T06:48:39;11.37;;;6.57;;
11344;SDS011;5727;42.600;23.028;2022-08-20T06:51:06;10.67;;;6.73;;
11344;SDS011;5727;42.600;23.028;2022-08-20T06:53:35;10.83;;;6.80;;
11344;SDS011;5727;42.600;23.028;2022-08-20T06:56:03;8.23;;;6.53;;
11344;SDS011;5727;42.600;23.028;2022-08-20T06:58:30;8.03;;;7.20;;
11344;SDS011;5727;42.600;23.028;2022-08-20T07:00:57;10.43;;;7.03;;
11344;SDS011;5727;42.600;23.028;2022-08-20T07:03:25;8.00;;;7.10;;
11344;SDS011;5727;42.600;23.028;2022-08-20T07:05:52;8.47;;;7.03;;
11344;SDS011;5727;42.600;23.028;2022-08-20T07:08:19;11.93;;;6.90;;
11344;SDS011;5727;42.600;23.028;2022-08-20T07:10:48;9.67;;;7.33;;
11344;SDS011;5727;42.600;23.028;2022-08-20T07:13:16;9.37;;;6.53;;
11344;SDS011;5727;42.600;23.028;2022-08-20T07:15:43;11.13;;;7.17;;
11344;SDS011;5727;42.600;23.028;2022-08-20T07:18:10;10.30;;;6.63;;
11344;SDS011;5727;42.600;23.028;2022-08-20T07:20:38;9.20;;;6.37;;
11344;SDS011;5727;42.600;23.028;2022-08-20T07:23:05;10.87;;;7.17;;
11344;SDS011;5727;42.600;23.028;2022-08-20T07:25:34;11.77;;;6.67;;
11344;SDS011;5727;42.600;23.028;2022-08-20T07:28:03;11.63;;;7.13;;
11344;SDS011;5727;42.600;23.028;2022-08-20T07:30:32;10.93;;;6.57;;
11344;SDS011;5727;42.600;23.028;2022-08-20T07:33:17;13.30;;;8.13;;
11344;SDS011;5727;42.600;23.028;2022-08-20T07:35:44;10.87;;;7.20;;
11344;SDS011;5727;42.600;23.028;2022-08-20T07:38:13;7.30;;;6.53;;
11344;SDS011;5727;42.600;23.028;2022-08-20T07:40:43;12.80;;;7.47;;
11344;SDS011;5727;42.600;23.028;2022-08-20T07:43:14;9.77;;;6.30;;
11344;SDS011;5727;42.600;23.028;2022-08-20T07:45:40;7.37;;;5.90;;
11344;SDS011;5727;42.600;23.028;2022-08-20T07:48:09;12.33;;;5.77;;
11344;SDS011;5727;42.600;23.028;2022-08-20T07:50:37;9.50;;;6.43;;
11344;SDS011;5727;42.600;23.028;2022-08-20T07:53:04;7.57;;;6.03;;
11344;SDS011;5727;42.600;23.028;2022-08-20T07:55:30;7.67;;;5.33;;
11344;SDS011;5727;42.600;23.028;2022-08-20T07:58:00;7.40;;;5.73;;
11344;SDS011;5727;42.600;23.028;2022-08-20T08:00:33;8.53;;;6.13;;
11344;SDS011;5727;42.600;23.028;2022-08-20T08:03:01;8.87;;;6.00;;
11344;SDS011;5727;42.600;23.028;2022-08-20T08:05:28;8.20;;;6.03;;
11344;SDS011;5727;42.600;23.028;2022-08-20T08:07:55;8.37;;;6.67;;
11344;SDS011;5727;42.600;23.028;2022-08-20T08:10:22;8.27;;;6.40;;
11344;SDS011;5727;42.600;23.028;2022-08-20T08:12:51;11.37;;;6.80;;
11344;SDS011;5727;42.600;23.028;2022-08-20T08:15:20;7.97;;;6.60;;
11344;SDS011;5727;42.600;23.028;2022-08-20T08:17:52;9.07;;;6.13;;
11344;SDS011;5727;42.600;23.028;2022-08-20T08:20:24;7.60;;;5.90;;
11344;SDS011;5727;42.600;23.028;2022-08-20T08:22:50;8.23;;;6.53;;
11344;SDS011;5727;42.600;23.028;2022-08-20T08:25:17;7.77;;;6.23;;
11344;SDS011;5727;42.600;23.028;2022-08-20T08:27:45;10.73;;;6.70;;
11344;SDS011;5727;42.600;23.028;2022-08-20T08:30:13;10.57;;;7.00;;
11344;SDS011;5727;42.600;23.028;2022-08-20T08:32:41;7.47;;;5.17;;
11344;SDS011;5727;42.600;23.028;2022-08-20T08:35:23;6.88;;;6.18;;
11344;SDS011;5727;42.600;23.028;2022-08-20T08:37:50;11.70;;;6.57;;
11344;SDS011;5727;42.600;23.028;2022-08-20T08:40:18;8.00;;;5.97;;
11344;SDS011;5727;42.600;23.028;2022-08-20T08:42:47;7.05;;;6.20;;
11344;SDS011;5727;42.600;23.028;2022-08-20T08:45:23;9.57;;;6.25;;
11344;SDS011;5727;42.600;23.028;2022-08-20T08:47:52;7.25;;;5.82;;
11344;SDS011;5727;42.600;23.028;2022-08-20T08:50:25;9.95;;;5.88;;
11344;SDS011;5727;42.600;23.028;2022-08-20T08:52:57;9.50;;;5.70;;
11344;SDS011;5727;42.600;23.028;2022-08-20T08:55:27;7.13;;;5.95;;
11344;SDS011;5727;42.600;23.028;2022-08-20T08:57:56;7.05;;;6.05;;
11344;SDS011;5727;42.600;23.028;2022-08-20T09:00:25;7.43;;;5.90;;
11344;SDS011;5727;42.600;23.028;2022-08-20T09:02:54;9.95;;;6.53;;
11344;SDS011;5727;42.600;23.028;2022-08-20T09:05:29;10.13;;;6.22;;
11344;SDS011;5727;42.600;23.028;2022-08-20T09:08:00;12.10;;;6.30;;
11344;SDS011;5727;42.600;23.028;2022-08-20T09:10:30;9.02;;;5.82;;
11344;SDS011;5727;42.600;23.028;2022-08-20T09:12:57;12.35;;;6.85;;
11344;SDS011;5727;42.600;23.028;2022-08-20T09:15:25;12.65;;;7.05;;
11344;SDS011;5727;42.600;23.028;2022-08-20T09:17:52;8.57;;;6.75;;
11344;SDS011;5727;42.600;23.028;2022-08-20T09:20:18;12.65;;;7.10;;
11344;SDS011;5727;42.600;23.028;2022-08-20T09:22:46;11.50;;;7.15;;
11344;SDS011;5727;42.600;23.028;2022-08-20T09:25:14;12.75;;;6.25;;
11344;SDS011;5727;42.600;23.028;2022-08-20T09:27:41;12.27;;;6.57;;
11344;SDS011;5727;42.600;23.028;2022-08-20T09:30:08;10.32;;;7.03;;
11344;SDS011;5727;42.600;23.028;2022-08-20T09:32:36;11.98;;;6.35;;
11344;SDS011;5727;42.600;23.028;2022-08-20T09:35:03;11.48;;;6.72;;
11344;SDS011;5727;42.600;23.028;2022-08-20T09:37:31;13.07;;;6.68;;
11344;SDS011;5727;42.600;23.028;2022-08-20T09:40:00;13.90;;;7.47;;
11344;SDS011;5727;42.600;23.028;2022-08-20T09:42:28;9.02;;;6.95;;
11344;SDS011;5727;42.600;23.028;2022-08-20T09:44:56;13.60;;;6.70;;
11344;SDS011;5727;42.600;23.028;2022-08-20T09:47:24;12.07;;;7.72;;
11344;SDS011;5727;42.600;23.028;2022-08-20T09:49:51;8.73;;;6.45;;
11344;SDS011;5727;42.600;23.028;2022-08-20T09:52:20;10.02;;;6.70;;
11344;SDS011;5727;42.600;23.028;2022-08-20T09:54:49;10.73;;;6.13;;
11344;SDS011;5727;42.600;23.028;2022-08-20T09:57:20;8.40;;;6.45;;
11344;SDS011;5727;42.600;23.028;2022-08-20T09:59:48;9.02;;;6.50;;
11344;SDS011;5727;42.600;23.028;2022-08-20T10:02:18;8.50;;;6.50;;
11344;SDS011;5727;42.600;23.028;2022-08-20T10:04:45;12.15;;;6.75;;
11344;SDS011;5727;42.600;23.028;2022-08-20T10:07:11;8.50;;;6.28;;
11344;SDS011;5727;42.600;23.028;2022-08-20T10:09:38;13.63;;;6.88;;
11344;SDS011;5727;42.600;23.028;2022-08-20T10:12:05;11.07;;;7.10;;
11344;SDS011;5727;42.600;23.028;2022-08-20T10:14:34;6.85;;;5.57;;
11344;SDS011;5727;42.600;23.028;2022-08-20T10:17:01;9.85;;;6.05;;
11344;SDS011;5727;42.600;23.028;2022-08-20T10:19:29;9.43;;;7.07;;
11344;SDS011;5727;42.600;23.028;2022-08-20T10:21:56;9.10;;;6.22;;
11344;SDS011;5727;42.600;23.028;2022-08-20T10:24:24;10.40;;;6.10;;
11344;SDS011;5727;42.600;23.028;2022-08-20T10:26:53;9.23;;;5.95;;
11344;SDS011;5727;42.600;23.028;2022-08-20T10:29:20;6.68;;;5.72;;
11344;SDS011;5727;42.600;23.028;2022-08-20T10:31:48;9.73;;;6.25;;
11344;SDS011;5727;42.600;23.028;2022-08-20T10:34:15;9.18;;;6.38;;
11344;SDS011;5727;42.600;23.028;2022-08-20T10:36:42;7.75;;;5.60;;
11344;SDS011;5727;42.600;23.028;2022-08-20T10:39:09;10.02;;;6.22;;
11344;SDS011;5727;42.600;23.028;2022-08-20T10:41:36;11.00;;;6.72;;
11344;SDS011;5727;42.600;23.028;2022-08-20T10:44:03;9.70;;;6.65;;
11344;SDS011;5727;42.600;23.028;2022-08-20T10:46:30;5.85;;;5.10;;
11344;SDS011;5727;42.600;23.028;2022-08-20T10:48:58;5.97;;;4.80;;
11344;SDS011;5727;42.600;23.028;2022-08-20T10:51:24;8.70;;;5.43;;
11344;SDS011;5727;42.600;23.028;2022-08-20T10:53:51;6.40;;;4.85;;
11344;SDS011;5727;42.600;23.028;2022-08-20T10:56:18;5.35;;;4.72;;
11344;SDS011;5727;42.600;23.028;2022-08-20T10:58:45;5.50;;;4.88;;
11344;SDS011;5727;42.600;23.028;2022-08-20T11:01:11;5.95;;;4.68;;
11344;SDS011;5727;42.600;23.028;2022-08-20T11:03:38;9.20;;;5.53;;
11344;SDS011;5727;42.600;23.028;2022-08-20T11:06:06;8.35;;;5.32;;
11344;SDS011;5727;42.600;23.028;2022-08-20T11:08:33;6.97;;;5.20;;
11344;SDS011;5727;42.600;23.028;2022-08-20T11:11:00;7.82;;;4.90;;
11344;SDS011;5727;42.600;23.028;2022-08-20T11:13:27;6.55;;;4.70;;
11344;SDS011;5727;42.600;23.028;2022-08-20T11:15:54;5.13;;;4.60;;
11344;SDS011;5727;42.600;23.028;2022-08-20T11:18:20;6.07;;;4.50;;
11344;SDS011;5727;42.600;23.028;2022-08-20T11:20:47;7.80;;;4.78;;
11344;SDS011;5727;42.600;23.028;2022-08-20T11:23:15;7.00;;;4.68;;
11344;SDS011;5727;42.600;23.028;2022-08-20T11:25:42;7.15;;;4.70;;
11344;SDS011;5727;42.600;23.028;2022-08-20T11:28:09;5.93;;;4.00;;
11344;SDS011;5727;42.600;23.028;2022-08-20T11:30:37;10.93;;;5.10;;
11344;SDS011;5727;42.600;23.028;2022-08-20T11:33:04;9.85;;;5.05;;
11344;SDS011;5727;42.600;23.028;2022-08-20T11:35:32;12.65;;;5.93;;
11344;SDS011;5727;42.600;23.028;2022-08-20T11:38:01;13.27;;;5.97;;
11344;SDS011;5727;42.600;23.028;2022-08-20T11:40:30;8.88;;;5.00;;
11344;SDS011;5727;42.600;23.028;2022-08-20T11:42:57;7.80;;;4.97;;
11344;SDS011;5727;42.600;23.028;2022-08-20T11:45:24;5.30;;;4.63;;
11344;SDS011;5727;42.600;23.028;2022-08-20T11:47:50;6.10;;;4.47;;
11344;SDS011;5727;42.600;23.028;2022-08-20T11:50:18;9.52;;;5.28;;
11344;SDS011;5727;42.600;23.028;2022-08-20T11:52:46;7.40;;;4.72;;
11344;SDS011;5727;42.600;23.028;2022-08-20T11:55:13;10.35;;;5.22;;
11344;SDS011;5727;42.600;23.028;2022-08-20T11:57:43;8.07;;;5.53;;
11344;SDS011;5727;42.600;23.028;2022-08-20T12:00:13;8.05;;;5.22;;
11344;SDS011;5727;42.600;23.028;2022-08-20T12:02:42;7.25;;;5.00;;
11344;SDS011;5727;42.600;23.028;2022-08-20T12:05:09;9.10;;;4.97;;
11344;SDS011;5727;42.600;23.028;2022-08-20T12:07:37;10.85;;;5.97;;
11344;SDS011;5727;42.600;23.028;2022-08-20T12:10:04;9.98;;;5.47;;
11344;SDS011;5727;42.600;23.028;2022-08-20T12:12:34;9.05;;;5.43;;
11344;SDS011;5727;42.600;23.028;2022-08-20T12:15:03;7.38;;;5.65;;
11344;SDS011;5727;42.600;23.028;2022-08-20T12:17:31;5.95;;;4.82;;
11344;SDS011;5727;42.600;23.028;2022-08-20T12:20:00;7.93;;;5.45;;
11344;SDS011;5727;42.600;23.028;2022-08-20T12:22:28;7.18;;;5.38;;
11344;SDS011;5727;42.600;23.028;2022-08-20T12:24:55;9.30;;;5.68;;
11344;SDS011;5727;42.600;23.028;2022-08-20T12:27:23;10.05;;;5.88;;
11344;SDS011;5727;42.600;23.028;2022-08-20T12:29:51;12.00;;;6.35;;
11344;SDS011;5727;42.600;23.028;2022-08-20T12:32:21;7.55;;;6.20;;
11344;SDS011;5727;42.600;23.028;2022-08-20T12:34:49;10.40;;;5.95;;
11344;SDS011;5727;42.600;23.028;2022-08-20T12:37:18;14.80;;;6.68;;
11344;SDS011;5727;42.600;23.028;2022-08-20T12:39:47;9.57;;;5.35;;
11344;SDS011;5727;42.600;23.028;2022-08-20T12:42:15;11.18;;;5.65;;
11344;SDS011;5727;42.600;23.028;2022-08-20T12:44:43;9.07;;;5.53;;
11344;SDS011;5727;42.600;23.028;2022-08-20T12:47:10;7.03;;;5.47;;
11344;SDS011;5727;42.600;23.028;2022-08-20T12:49:40;7.32;;;5.95;;
11344;SDS011;5727;42.600;23.028;2022-08-20T12:52:09;11.25;;;5.75;;
11344;SDS011;5727;42.600;23.028;2022-08-20T12:54:37;7.40;;;5.53;;
11344;SDS011;5727;42.600;23.028;2022-08-20T12:57:04;8.50;;;5.15;;
11344;SDS011;5727;42.600;23.028;2022-08-20T12:59:31;14.95;;;6.60;;
11344;SDS011;5727;42.600;23.028;2022-08-20T13:01:58;14.90;;;6.72;;
11344;SDS011;5727;42.600;23.028;2022-08-20T13:04:25;8.77;;;5.50;;
11344;SDS011;5727;42.600;23.028;2022-08-20T13:06:53;13.90;;;6.07;;
11344;SDS011;5727;42.600;23.028;2022-08-20T13:09:25;21.20;;;6.65;;
11344;SDS011;5727;42.600;23.028;2022-08-20T13:11:52;5.95;;;4.97;;
11344;SDS011;5727;42.600;23.028;2022-08-20T13:14:19;9.65;;;5.70;;
11344;SDS011;5727;42.600;23.028;2022-08-20T13:16:45;10.90;;;5.82;;
11344;SDS011;5727;42.600;23.028;2022-08-20T13:19:12;10.40;;;5.90;;
11344;SDS011;5727;42.600;23.028;2022-08-20T13:21:39;7.10;;;5.45;;
11344;SDS011;5727;42.600;23.028;2022-08-20T13:24:07;9.88;;;6.15;;
11344;SDS011;5727;42.600;23.028;2022-08-20T13:26:34;36.35;;;8.57;;
11344;SDS011;5727;42.600;23.028;2022-08-20T13:29:01;18.13;;;7.72;;
11344;SDS011;5727;42.600;23.028;2022-08-20T13:31:28;13.05;;;8.13;;
11344;SDS011;5727;42.600;23.028;2022-08-20T13:33:55;9.00;;;8.00;;
11344;SDS011;5727;42.600;23.028;2022-08-20T13:36:21;10.47;;;7.23;;
11344;SDS011;5727;42.600;23.028;2022-08-20T13:38:48;8.77;;;7.47;;
11344;SDS011;5727;42.600;23.028;2022-08-20T13:41:16;10.07;;;7.00;;
11344;SDS011;5727;42.600;23.028;2022-08-20T13:43:43;14.83;;;7.97;;
11344;SDS011;5727;42.600;23.028;2022-08-20T13:46:10;10.60;;;7.33;;
11344;SDS011;5727;42.600;23.028;2022-08-20T13:48:37;9.90;;;7.67;;
11344;SDS011;5727;42.600;23.028;2022-08-20T13:51:04;10.60;;;8.23;;
11344;SDS011;5727;42.600;23.028;2022-08-20T13:53:31;11.07;;;8.30;;
11344;SDS011;5727;42.600;23.028;2022-08-20T13:55:58;10.83;;;8.57;;
11344;SDS011;5727;42.600;23.028;2022-08-20T13:58:26;10.03;;;8.07;;
11344;SDS011;5727;42.600;23.028;2022-08-20T14:00:53;19.33;;;8.63;;
11344;SDS011;5727;42.600;23.028;2022-08-20T14:03:20;11.70;;;8.10;;
11344;SDS011;5727;42.600;23.028;2022-08-20T14:05:47;7.87;;;6.90;;
11344;SDS011;5727;42.600;23.028;2022-08-20T14:08:15;9.93;;;7.40;;
11344;SDS011;5727;42.600;23.028;2022-08-20T14:10:43;10.17;;;6.97;;
11344;SDS011;5727;42.600;23.028;2022-08-20T14:13:14;9.13;;;5.83;;
11344;SDS011;5727;42.600;23.028;2022-08-20T14:15:43;7.63;;;4.97;;
11344;SDS011;5727;42.600;23.028;2022-08-20T14:18:10;8.70;;;4.67;;
11344;SDS011;5727;42.600;23.028;2022-08-20T14:20:40;9.57;;;4.60;;
11344;SDS011;5727;42.600;23.028;2022-08-20T14:23:08;11.93;;;4.50;;
11344;SDS011;5727;42.600;23.028;2022-08-20T14:25:36;9.67;;;5.33;;
11344;SDS011;5727;42.600;23.028;2022-08-20T14:28:09;8.83;;;5.53;;
11344;SDS011;5727;42.600;23.028;2022-08-20T14:30:38;16.60;;;6.13;;
11344;SDS011;5727;42.600;23.028;2022-08-20T14:33:07;12.40;;;6.17;;
11344;SDS011;5727;42.600;23.028;2022-08-20T14:35:34;10.87;;;7.40;;
11344;SDS011;5727;42.600;23.028;2022-08-20T14:38:01;9.63;;;6.63;;
11344;SDS011;5727;42.600;23.028;2022-08-20T14:40:28;8.70;;;6.90;;
11344;SDS011;5727;42.600;23.028;2022-08-20T14:42:55;12.33;;;7.33;;
11344;SDS011;5727;42.600;23.028;2022-08-20T14:45:21;11.40;;;6.57;;